createdAt,value
2018-12-20T00:03:12.584Z,47.49
2018-12-20T00:08:16.016Z,47.41
2018-12-20T00:13:19.400Z,47.45
2018-12-20T00:18:22.977Z,47.42
2018-12-20T00:23:26.312Z,47.41
2018-12-20T00:28:29.593Z,47.47
2018-12-20T00:33:32.885Z,47.78
2018-12-20T00:38:36.331Z,47.68
2018-12-20T00:43:39.660Z,47.32
2018-12-20T00:48:42.986Z,47.69
2018-12-20T00:53:46.336Z,47.90
2018-12-20T00:58:49.745Z,48.00
2018-12-20T01:03:53.239Z,48.04
2018-12-20T01:08:56.621Z,48.00
2018-12-20T01:13:59.894Z,47.93
2018-12-20T01:19:03.273Z,47.93
2018-12-20T01:24:06.714Z,48.17
2018-12-20T01:29:10.080Z,48.12
2018-12-20T01:34:13.498Z,48.30
2018-12-20T01:39:16.868Z,48.42
2018-12-20T01:44:20.293Z,48.23
2018-12-20T01:49:23.801Z,48.29
2018-12-20T01:54:27.115Z,48.47
2018-12-20T01:59:30.566Z,48.38
2018-12-20T02:04:34.039Z,48.21
2018-12-20T02:09:37.468Z,48.27
2018-12-20T02:14:40.963Z,48.36
2018-12-20T02:19:44.326Z,48.60
2018-12-20T02:24:47.782Z,48.57
2018-12-20T02:29:51.217Z,48.77
2018-12-20T02:34:54.679Z,48.58
2018-12-20T02:39:58.042Z,48.47
2018-12-20T02:45:01.376Z,48.74
2018-12-20T02:50:06.751Z,48.61
2018-12-20T02:55:10.033Z,48.75
2018-12-20T03:00:13.644Z,48.91
2018-12-20T03:05:17.253Z,48.82
2018-12-20T03:10:20.792Z,48.87
2018-12-20T03:15:24.100Z,49.09
2018-12-20T03:20:27.373Z,49.07
2018-12-20T03:25:30.646Z,49.39
2018-12-20T03:30:33.966Z,49.48
2018-12-20T03:35:37.252Z,49.26
2018-12-20T03:40:40.577Z,49.33
2018-12-20T03:45:44.083Z,49.13
2018-12-20T03:50:47.495Z,49.33
2018-12-20T03:55:50.917Z,49.54
2018-12-20T04:00:54.269Z,49.38
2018-12-20T04:05:57.832Z,49.77
2018-12-20T04:11:01.479Z,49.73
2018-12-20T04:16:04.996Z,49.79
2018-12-20T04:21:08.402Z,50.31
2018-12-20T04:26:11.793Z,49.94
2018-12-20T04:31:15.077Z,50.29
2018-12-20T04:36:18.568Z,50.55
2018-12-20T04:41:22.002Z,50.46
2018-12-20T04:46:25.490Z,50.20
2018-12-20T04:51:28.830Z,50.27
2018-12-20T04:56:32.204Z,49.55
2018-12-20T05:01:35.637Z,49.94
2018-12-20T05:06:39.038Z,49.56
2018-12-20T05:11:42.519Z,50.29
2018-12-20T05:16:46.044Z,50.28
2018-12-20T05:21:49.460Z,50.25
2018-12-20T05:26:52.866Z,50.27
2018-12-20T05:31:56.333Z,50.33
2018-12-20T05:36:59.778Z,50.90
2018-12-20T05:42:03.577Z,51.00
2018-12-20T05:47:07.029Z,50.65
2018-12-20T05:52:10.319Z,50.71
2018-12-20T05:57:13.700Z,50.84
2018-12-20T06:02:17.162Z,51.07
2018-12-20T06:07:20.530Z,51.00
2018-12-20T06:12:23.941Z,51.25
2018-12-20T06:17:27.543Z,51.06
2018-12-20T06:22:30.944Z,50.89
2018-12-20T06:27:34.466Z,50.61
2018-12-20T06:32:37.767Z,50.63
2018-12-20T06:37:41.068Z,50.41
2018-12-20T06:42:44.357Z,50.46
2018-12-20T06:47:47.644Z,50.85
2018-12-20T06:52:50.928Z,51.07
2018-12-20T06:57:54.218Z,50.92
2018-12-20T07:02:57.588Z,51.36
2018-12-20T07:08:00.873Z,51.74
2018-12-20T07:13:05.430Z,51.66
2018-12-20T07:18:08.910Z,51.80
2018-12-20T07:23:12.205Z,52.08
2018-12-20T07:28:15.572Z,52.12
2018-12-20T07:33:18.865Z,51.91
2018-12-20T07:38:22.148Z,52.27
2018-12-20T07:43:25.450Z,52.15
2018-12-20T07:48:32.271Z,51.39
2018-12-20T07:53:34.064Z,51.37
2018-12-20T07:58:37.344Z,50.77
2018-12-20T08:03:40.675Z,36.15
2018-12-20T08:08:44.016Z,38.68
2018-12-20T08:13:47.292Z,39.50
2018-12-20T08:18:50.575Z,38.61
2018-12-20T08:23:53.873Z,37.05
2018-12-20T08:28:57.161Z,37.38
2018-12-20T08:34:00.453Z,37.73
2018-12-20T08:39:08.502Z,38.70
2018-12-20T08:44:11.778Z,39.48
2018-12-20T08:49:15.057Z,40.02
2018-12-20T08:59:27.929Z,41.02
2018-12-20T09:04:31.236Z,41.75
2018-12-20T09:09:34.821Z,41.92
2018-12-20T09:14:38.133Z,42.53
2018-12-20T09:19:41.428Z,42.62
2018-12-20T09:24:44.719Z,42.78
2018-12-20T09:29:48.008Z,43.29
2018-12-20T09:34:51.280Z,43.61
2018-12-20T09:39:54.573Z,43.57
2018-12-20T09:44:57.889Z,44.16
2018-12-20T09:50:01.181Z,44.15
2018-12-20T09:55:04.730Z,44.93
2018-12-20T10:00:09.894Z,44.58
2018-12-20T10:05:13.172Z,45.50
2018-12-20T10:10:16.465Z,45.39
2018-12-20T10:15:19.759Z,45.53
2018-12-20T10:20:23.093Z,45.67
2018-12-20T10:25:26.381Z,45.47
2018-12-20T10:30:29.668Z,45.38
2018-12-20T10:35:32.969Z,46.53
2018-12-20T10:40:36.274Z,46.59
2018-12-20T10:45:39.586Z,45.17
2018-12-20T10:50:42.882Z,46.28
2018-12-20T10:55:46.157Z,45.95
2018-12-20T11:00:54.915Z,46.05
2018-12-20T11:06:04.255Z,46.28
2018-12-20T11:11:09.504Z,46.17
2018-12-20T11:16:12.797Z,46.10
2018-12-20T11:21:16.296Z,46.42
2018-12-20T11:26:19.605Z,46.04
2018-12-20T11:31:22.913Z,45.82
2018-12-20T11:36:26.221Z,46.24
2018-12-20T11:41:29.737Z,46.25
2018-12-20T11:46:33.020Z,46.49
2018-12-20T11:51:36.321Z,46.25
2018-12-20T11:56:39.628Z,45.91
2018-12-20T12:01:42.918Z,46.16
2018-12-20T12:06:46.637Z,46.23
2018-12-20T12:11:49.948Z,48.10
2018-12-20T12:16:53.245Z,48.09
2018-12-20T12:21:56.555Z,48.59
2018-12-20T12:26:59.844Z,47.94
2018-12-20T12:32:03.154Z,48.10
2018-12-20T12:37:06.544Z,47.77
2018-12-20T12:42:09.918Z,47.63
2018-12-20T12:47:13.219Z,47.79
2018-12-20T12:52:16.509Z,47.77
2018-12-20T12:57:22.155Z,47.61
2018-12-20T13:02:25.127Z,47.47
2018-12-20T13:07:28.445Z,47.48
2018-12-20T13:12:31.753Z,47.49
2018-12-20T13:17:35.045Z,47.68
2018-12-20T13:22:38.339Z,47.78
2018-12-20T13:27:41.650Z,47.30
2018-12-20T13:32:44.969Z,47.51
2018-12-20T13:37:48.414Z,47.62
2018-12-20T13:42:51.787Z,47.74
2018-12-20T13:47:55.140Z,47.58
2018-12-20T13:52:59.009Z,47.71
2018-12-20T13:58:02.366Z,47.34
2018-12-20T14:03:05.748Z,47.31
2018-12-20T14:08:09.174Z,47.32
2018-12-20T14:13:12.483Z,47.39
2018-12-20T14:18:15.799Z,47.39
2018-12-20T14:23:19.177Z,47.54
2018-12-20T14:28:22.524Z,47.41
2018-12-20T14:33:25.822Z,47.28
2018-12-20T14:38:29.113Z,47.63
2018-12-20T14:43:32.412Z,47.66
2018-12-20T14:48:39.551Z,47.31
2018-12-20T14:53:41.185Z,47.77
2018-12-20T14:58:44.666Z,47.78
2018-12-20T15:03:48.039Z,47.66
2018-12-20T15:08:51.386Z,47.55
2018-12-20T15:13:54.746Z,47.71
2018-12-20T15:18:58.076Z,47.33
2018-12-20T15:24:01.460Z,46.74
2018-12-20T15:29:04.957Z,47.35
2018-12-20T15:34:08.328Z,47.25
2018-12-20T15:39:12.025Z,47.62
2018-12-20T15:44:15.342Z,47.68
2018-12-20T15:49:18.665Z,47.15
2018-12-20T15:54:21.961Z,47.31
2018-12-20T15:59:25.856Z,47.05
2018-12-20T16:04:29.706Z,47.06
2018-12-20T16:09:33.209Z,46.78
2018-12-20T16:14:36.624Z,46.79
2018-12-20T16:19:39.919Z,45.99
2018-12-20T16:24:43.216Z,46.21
2018-12-20T16:29:46.548Z,46.96
2018-12-20T16:34:49.872Z,47.02
2018-12-20T16:39:53.212Z,47.04
2018-12-20T16:44:56.612Z,47.00
2018-12-20T16:49:59.926Z,47.59
2018-12-20T16:55:03.341Z,47.68
2018-12-20T17:00:08.642Z,48.22
2018-12-20T17:05:12.002Z,47.30
2018-12-20T17:10:15.376Z,48.62
2018-12-20T17:15:18.706Z,48.62
2018-12-20T17:20:22.009Z,49.22
2018-12-20T17:25:25.321Z,49.54
2018-12-20T17:30:28.698Z,49.55
2018-12-20T17:35:32.000Z,49.57
2018-12-20T17:40:35.328Z,49.57
2018-12-20T17:45:38.634Z,50.00
2018-12-20T17:50:41.944Z,49.60
2018-12-20T17:55:45.257Z,49.50
2018-12-20T18:00:48.592Z,49.27
2018-12-20T18:05:51.951Z,49.72
2018-12-20T18:10:55.248Z,49.15
2018-12-20T18:15:58.735Z,49.53
2018-12-20T18:21:02.154Z,49.21
2018-12-20T18:26:07.278Z,49.24
2018-12-20T18:31:12.319Z,48.81
2018-12-20T18:36:17.656Z,48.47
2018-12-20T18:41:22.709Z,49.24
2018-12-20T18:46:29.125Z,49.15
2018-12-20T18:51:32.469Z,48.50
2018-12-20T18:56:35.780Z,48.29
2018-12-20T19:01:39.083Z,48.75
2018-12-20T19:06:42.389Z,48.93
2018-12-20T19:11:45.709Z,48.59
2018-12-20T19:16:49.078Z,48.84
2018-12-20T19:21:53.005Z,48.90
2018-12-20T19:26:56.294Z,48.25
2018-12-20T19:31:59.649Z,48.47
2018-12-20T19:37:03.133Z,48.37
2018-12-20T19:42:11.866Z,48.10
2018-12-20T19:47:16.809Z,47.93
2018-12-20T19:52:21.966Z,47.23
2018-12-20T19:57:27.228Z,47.17
2018-12-20T20:02:32.381Z,46.88
2018-12-20T20:07:37.732Z,46.87
2018-12-20T20:12:42.798Z,47.51
2018-12-20T20:17:47.837Z,46.85
2018-12-20T20:22:52.782Z,47.54
2018-12-20T20:27:57.890Z,47.39
2018-12-20T20:33:01.206Z,47.13
2018-12-20T20:38:04.502Z,47.44
2018-12-20T20:43:07.806Z,47.15
2018-12-20T20:48:11.126Z,47.80
2018-12-20T20:53:14.494Z,47.24
2018-12-20T20:58:17.793Z,47.14
2018-12-20T21:03:21.104Z,47.37
2018-12-20T21:08:24.404Z,47.31
2018-12-20T21:13:27.824Z,47.45
2018-12-20T21:18:31.124Z,47.67
2018-12-20T21:23:34.422Z,47.87
2018-12-20T21:28:37.732Z,48.11
2018-12-20T21:33:41.034Z,47.70
2018-12-20T21:38:44.325Z,47.99
2018-12-20T21:43:47.613Z,47.88
2018-12-20T21:48:50.909Z,47.94
2018-12-20T21:53:55.027Z,48.23
2018-12-20T21:58:58.645Z,47.91
2018-12-20T22:04:01.934Z,48.33
2018-12-20T22:09:06.855Z,48.30
2018-12-20T22:14:10.212Z,48.79
2018-12-20T22:19:13.586Z,48.22
2018-12-20T22:24:16.888Z,48.81
2018-12-20T22:29:20.177Z,48.51
2018-12-20T22:34:23.465Z,48.33
2018-12-20T22:39:26.797Z,48.50
2018-12-20T22:44:30.093Z,48.33
2018-12-20T22:49:33.398Z,48.37
2018-12-20T22:54:36.694Z,48.65
2018-12-20T22:59:39.984Z,48.36
2018-12-20T23:04:43.277Z,48.24
2018-12-20T23:09:46.598Z,48.65
2018-12-20T23:14:49.927Z,48.47
2018-12-20T23:19:53.257Z,48.36
2018-12-20T23:24:56.591Z,48.69
2018-12-20T23:29:59.914Z,48.75
2018-12-20T23:35:03.424Z,49.03
2018-12-20T23:40:06.764Z,48.74
2018-12-20T23:45:10.097Z,48.85
2018-12-20T23:50:14.580Z,48.57
2018-12-20T23:55:17.908Z,48.62
